UAE29V OMDB-EDDF
Flight info
| Callsign | UAE29V |
|---|---|
| Flight time | N/A |
| Altitude | 35000 |
| Route | ANVIX L223 TARDI N629 BOTAM Y855 LAKLU/N0496F360 Q204 NALKI G652 TOKRA DCT ALROK DCT BOSOB DCT ITRUX Y511 PMA/N0493F380 Z712 WEJ L677 GESON Q777 RASDA DCT OTHON UN128 RDS UL609 MES DCT EVIVI DCT OKANA DCT NIVIS DCT BABIT DCT ARSIN DCT BUDEX DCT IPDUL DCT RAPET T170 VAGAB/N0401F240 T170 GAPLA T178 KERAX KERAX5D |
| Aircraft | A388/J-SADE2E3FGHIJ3J4J5M1RWXY/LB1D1 |
Departure
| Time | N/A |
|---|---|
| Airport | Dubai International Airport (OMDB) |
Arrival
| Time | 2026-04-15 16:29 |
|---|---|
| Airport | Frankfurt Main Airport (EDDF) |
| Time | Latitude | Longitude | Altitude | Speed | Heading |
|---|---|---|---|---|---|
| 2026-04-15 16:01 | 50.34220 | 11.67602 | 28966 ft | 415 kts | 291° |
| 2026-04-15 16:02 | 50.35184 | 11.63347 | 28562 ft | 412 kts | 291° |
| 2026-04-15 16:02 | 50.36128 | 11.59167 | 28160 ft | 411 kts | 290° |
| 2026-04-15 16:02 | 50.37083 | 11.54932 | 27752 ft | 410 kts | 290° |
| 2026-04-15 16:02 | 50.38032 | 11.50717 | 27360 ft | 408 kts | 290° |
| 2026-04-15 16:03 | 50.38964 | 11.46568 | 26980 ft | 406 kts | 290° |
| 2026-04-15 16:03 | 50.39901 | 11.42397 | 26598 ft | 404 kts | 290° |
| 2026-04-15 16:03 | 50.40830 | 11.38247 | 26215 ft | 402 kts | 290° |
| 2026-04-15 16:03 | 50.41744 | 11.34153 | 25852 ft | 400 kts | 290° |
| 2026-04-15 16:04 | 50.42661 | 11.30038 | 25489 ft | 398 kts | 289° |
| 2026-04-15 16:04 | 50.43573 | 11.25931 | 25129 ft | 396 kts | 289° |
| 2026-04-15 16:04 | 50.44467 | 11.21893 | 24777 ft | 395 kts | 289° |
| 2026-04-15 16:04 | 50.45368 | 11.17820 | 24428 ft | 393 kts | 289° |
| 2026-04-15 16:05 | 50.46259 | 11.13783 | 24081 ft | 391 kts | 289° |
| 2026-04-15 16:05 | 50.47148 | 11.09746 | 23726 ft | 390 kts | 288° |
| 2026-04-15 16:05 | 50.48032 | 11.05725 | 23318 ft | 388 kts | 288° |
| 2026-04-15 16:05 | 50.48911 | 11.01718 | 22915 ft | 385 kts | 288° |
| 2026-04-15 16:06 | 50.49771 | 10.97793 | 22570 ft | 383 kts | 288° |
| 2026-04-15 16:06 | 50.50635 | 10.93842 | 22301 ft | 382 kts | 288° |
| 2026-04-15 16:06 | 50.51496 | 10.89896 | 22045 ft | 381 kts | 288° |
| 2026-04-15 16:06 | 50.52358 | 10.85942 | 21792 ft | 380 kts | 288° |
| 2026-04-15 16:07 | 50.53201 | 10.82063 | 21533 ft | 378 kts | 288° |
| 2026-04-15 16:07 | 50.54063 | 10.78156 | 21273 ft | 377 kts | 289° |
| 2026-04-15 16:07 | 50.55837 | 10.70392 | 20765 ft | 375 kts | 289° |
| 2026-04-15 16:08 | 50.56710 | 10.66568 | 20514 ft | 375 kts | 288° |
| 2026-04-15 16:08 | 50.57586 | 10.62711 | 20255 ft | 373 kts | 288° |
| 2026-04-15 16:08 | 50.58455 | 10.58863 | 20021 ft | 372 kts | 288° |
| 2026-04-15 16:08 | 50.59319 | 10.55037 | 19782 ft | 370 kts | 288° |
| 2026-04-15 16:09 | 50.60182 | 10.51221 | 19540 ft | 369 kts | 288° |
| 2026-04-15 16:09 | 50.61034 | 10.47448 | 19301 ft | 368 kts | 288° |
| 2026-04-15 16:09 | 50.61892 | 10.43643 | 19066 ft | 367 kts | 288° |
| 2026-04-15 16:09 | 50.62743 | 10.39856 | 18831 ft | 366 kts | 288° |
| 2026-04-15 16:10 | 50.63582 | 10.36118 | 18598 ft | 364 kts | 288° |
| 2026-04-15 16:10 | 50.64403 | 10.32334 | 18347 ft | 362 kts | 283° |
| 2026-04-15 16:10 | 50.64663 | 10.28462 | 18084 ft | 359 kts | 266° |
| 2026-04-15 16:10 | 50.64142 | 10.24630 | 17810 ft | 358 kts | 249° |
| 2026-04-15 16:11 | 50.62995 | 10.21146 | 17555 ft | 357 kts | 242° |
| 2026-04-15 16:11 | 50.61790 | 10.17723 | 17290 ft | 356 kts | 242° |
| 2026-04-15 16:11 | 50.60620 | 10.14346 | 17025 ft | 355 kts | 242° |
| 2026-04-15 16:11 | 50.59441 | 10.10934 | 16776 ft | 353 kts | 242° |
| 2026-04-15 16:12 | 50.58266 | 10.07539 | 16424 ft | 353 kts | 242° |
| 2026-04-15 16:12 | 50.57093 | 10.04163 | 16032 ft | 350 kts | 242° |
| 2026-04-15 16:12 | 50.55924 | 10.00807 | 15668 ft | 349 kts | 242° |
| 2026-04-15 16:12 | 50.54763 | 9.97463 | 15302 ft | 347 kts | 243° |
| 2026-04-15 16:13 | 50.53822 | 9.94027 | 14947 ft | 345 kts | 251° |
| 2026-04-15 16:13 | 50.53161 | 9.90416 | 14580 ft | 343 kts | 255° |
| 2026-04-15 16:13 | 50.52530 | 9.86799 | 14225 ft | 342 kts | 255° |
| 2026-04-15 16:13 | 50.51886 | 9.83209 | 13854 ft | 340 kts | 254° |
| 2026-04-15 16:14 | 50.51247 | 9.79676 | 13453 ft | 338 kts | 254° |
| 2026-04-15 16:14 | 50.50603 | 9.76131 | 13063 ft | 336 kts | 254° |
| 2026-04-15 16:14 | 50.49963 | 9.72601 | 12681 ft | 334 kts | 254° |
| 2026-04-15 16:14 | 50.49351 | 9.69089 | 12298 ft | 332 kts | 255° |
| 2026-04-15 16:15 | 50.48761 | 9.65629 | 11916 ft | 331 kts | 255° |
| 2026-04-15 16:15 | 50.48153 | 9.62137 | 11534 ft | 329 kts | 251° |
| 2026-04-15 16:15 | 50.47055 | 9.59009 | 11156 ft | 329 kts | 230° |
| 2026-04-15 16:15 | 50.45293 | 9.56779 | 10782 ft | 330 kts | 208° |
| 2026-04-15 16:16 | 50.43177 | 9.55398 | 10432 ft | 325 kts | 203° |
| 2026-04-15 16:16 | 50.41105 | 9.54093 | 10081 ft | 317 kts | 204° |
| 2026-04-15 16:16 | 50.39055 | 9.52907 | 9634 ft | 310 kts | 195° |
| 2026-04-15 16:16 | 50.36942 | 9.52526 | 9271 ft | 299 kts | 179° |
| 2026-04-15 16:17 | 50.34934 | 9.52919 | 9181 ft | 284 kts | 174° |
| 2026-04-15 16:17 | 50.33017 | 9.52799 | 9186 ft | 279 kts | 193° |
| 2026-04-15 16:17 | 50.31118 | 9.52178 | 9181 ft | 273 kts | 194° |
| 2026-04-15 16:17 | 50.29414 | 9.51196 | 9180 ft | 251 kts | 217° |
| 2026-04-15 16:18 | 50.28283 | 9.49229 | 9089 ft | 242 kts | 242° |
| 2026-04-15 16:18 | 50.27525 | 9.46896 | 8750 ft | 245 kts | 244° |
| 2026-04-15 16:18 | 50.26775 | 9.44506 | 8366 ft | 242 kts | 244° |
| 2026-04-15 16:18 | 50.26047 | 9.42175 | 7990 ft | 241 kts | 244° |
| 2026-04-15 16:19 | 50.25318 | 9.39821 | 7587 ft | 241 kts | 244° |
| 2026-04-15 16:19 | 50.24591 | 9.37471 | 7275 ft | 238 kts | 243° |
| 2026-04-15 16:19 | 50.23866 | 9.35155 | 7181 ft | 237 kts | 243° |
| 2026-04-15 16:19 | 50.23137 | 9.32858 | 7089 ft | 239 kts | 243° |
| 2026-04-15 16:20 | 50.22398 | 9.30531 | 6851 ft | 239 kts | 243° |
| 2026-04-15 16:20 | 50.21661 | 9.28217 | 6607 ft | 237 kts | 242° |
| 2026-04-15 16:20 | 50.20925 | 9.25902 | 6354 ft | 237 kts | 242° |
| 2026-04-15 16:20 | 50.20195 | 9.23601 | 6089 ft | 237 kts | 243° |
| 2026-04-15 16:21 | 50.19465 | 9.21303 | 5837 ft | 236 kts | 242° |
| 2026-04-15 16:21 | 50.18747 | 9.19040 | 5587 ft | 235 kts | 243° |
| 2026-04-15 16:21 | 50.18019 | 9.16758 | 5332 ft | 234 kts | 242° |
| 2026-04-15 16:21 | 50.17322 | 9.14453 | 5078 ft | 234 kts | 245° |
| 2026-04-15 16:22 | 50.16710 | 9.12091 | 4826 ft | 234 kts | 248° |
| 2026-04-15 16:22 | 50.16141 | 9.09706 | 4567 ft | 233 kts | 248° |
| 2026-04-15 16:22 | 50.15586 | 9.07363 | 4295 ft | 231 kts | 248° |
| 2026-04-15 16:22 | 50.15028 | 9.05014 | 4044 ft | 231 kts | 249° |
| 2026-04-15 16:23 | 50.14471 | 9.02667 | 4018 ft | 231 kts | 248° |
| 2026-04-15 16:23 | 50.13913 | 9.00317 | 4022 ft | 230 kts | 248° |
| 2026-04-15 16:23 | 50.13355 | 8.97964 | 4027 ft | 232 kts | 248° |
| 2026-04-15 16:23 | 50.12797 | 8.95612 | 4008 ft | 231 kts | 248° |
| 2026-04-15 16:24 | 50.12240 | 8.93264 | 4010 ft | 231 kts | 248° |
| 2026-04-15 16:24 | 50.11688 | 8.90944 | 4012 ft | 231 kts | 249° |
| 2026-04-15 16:24 | 50.11128 | 8.88587 | 4009 ft | 231 kts | 249° |
| 2026-04-15 16:24 | 50.10577 | 8.86262 | 4004 ft | 223 kts | 248° |
| 2026-04-15 16:25 | 50.10053 | 8.84061 | 3822 ft | 215 kts | 249° |
| 2026-04-15 16:25 | 50.09564 | 8.82000 | 3548 ft | 191 kts | 248° |
| 2026-04-15 16:25 | 50.09108 | 8.80085 | 3267 ft | 186 kts | 248° |
| 2026-04-15 16:25 | 50.08659 | 8.78196 | 3012 ft | 185 kts | 248° |
| 2026-04-15 16:26 | 50.08214 | 8.76325 | 2758 ft | 184 kts | 248° |
| 2026-04-15 16:26 | 50.07769 | 8.74454 | 2500 ft | 184 kts | 248° |
| 2026-04-15 16:26 | 50.07326 | 8.72599 | 2251 ft | 184 kts | 248° |
| 2026-04-15 16:26 | 50.06882 | 8.70732 | 2001 ft | 183 kts | 248° |
| 2026-04-15 16:27 | 50.06441 | 8.68877 | 1743 ft | 177 kts | 248° |
| 2026-04-15 16:27 | 50.06044 | 8.67205 | 1515 ft | 150 kts | 247° |
| 2026-04-15 16:27 | 50.05691 | 8.65743 | 1304 ft | 141 kts | 248° |
| 2026-04-15 16:27 | 50.05345 | 8.64325 | 1163 ft | 139 kts | 249° |
| 2026-04-15 16:28 | 50.05007 | 8.62906 | 989 ft | 139 kts | 250° |
| 2026-04-15 16:28 | 50.04673 | 8.61499 | 841 ft | 138 kts | 250° |
| 2026-04-15 16:28 | 50.04341 | 8.60106 | 655 ft | 138 kts | 250° |
| 2026-04-15 16:28 | 50.04017 | 8.58723 | 415 ft | 134 kts | 251° |
| 2026-04-15 16:29 | 50.03721 | 8.57471 | 368 ft | 101 kts | 249° |
| 2026-04-15 16:29 | 50.03552 | 8.56762 | 356 ft | 53 kts | 249° |
| 2026-04-15 16:29 | 50.03441 | 8.56299 | 362 ft | 39 kts | 251° |
| 2026-04-15 16:29 | 50.03448 | 8.55924 | 358 ft | 30 kts | 280° |
| 2026-04-15 16:30 | 50.03482 | 8.55729 | 355 ft | 15 kts | 318° |
| 2026-04-15 16:30 | 50.03554 | 8.55749 | 358 ft | 12 kts | 63° |
| 2026-04-15 16:30 | 50.03594 | 8.55891 | 362 ft | 18 kts | 69° |
| 2026-04-15 16:30 | 50.03644 | 8.56107 | 365 ft | 24 kts | 71° |
| 2026-04-15 16:31 | 50.03710 | 8.56385 | 364 ft | 30 kts | 69° |
| 2026-04-15 16:31 | 50.03784 | 8.56693 | 365 ft | 30 kts | 69° |
| 2026-04-15 16:31 | 50.03857 | 8.56996 | 367 ft | 30 kts | 70° |
| 2026-04-15 16:31 | 50.03927 | 8.57296 | 374 ft | 29 kts | 70° |
| 2026-04-15 16:32 | 50.03997 | 8.57583 | 374 ft | 28 kts | 68° |
| 2026-04-15 16:32 | 50.04059 | 8.57845 | 373 ft | 26 kts | 71° |
| 2026-04-15 16:32 | 50.04113 | 8.58067 | 377 ft | 15 kts | 66° |
| 2026-04-15 16:32 | 50.04158 | 8.58200 | 377 ft | 14 kts | 92° |
| 2026-04-15 16:33 | 50.04182 | 8.58363 | 376 ft | 18 kts | 68° |
| 2026-04-15 16:33 | 50.04232 | 8.58559 | 375 ft | 21 kts | 70° |
| 2026-04-15 16:33 | 50.04286 | 8.58784 | 379 ft | 23 kts | 70° |
| 2026-04-15 16:33 | 50.04342 | 8.59020 | 382 ft | 24 kts | 70° |
| 2026-04-15 16:34 | 50.04401 | 8.59273 | 381 ft | 26 kts | 70° |
| 2026-04-15 16:34 | 50.04447 | 8.59444 | 380 ft | 16 kts | 52° |
| 2026-04-15 16:34 | 50.04555 | 8.59476 | 378 ft | 19 kts | 353° |
| 2026-04-15 16:34 | 50.04686 | 8.59444 | 377 ft | 14 kts | 346° |
| 2026-04-15 16:35 | 50.04771 | 8.59402 | 377 ft | 13 kts | 340° |
| 2026-04-15 16:35 | 50.04879 | 8.59366 | 378 ft | 19 kts | 3° |
| 2026-04-15 16:35 | 50.05007 | 8.59330 | 372 ft | 15 kts | 340° |
| 2026-04-15 16:35 | 50.05075 | 8.59217 | 370 ft | 16 kts | 269° |
| 2026-04-15 16:36 | 50.05053 | 8.59077 | 370 ft | 10 kts | 254° |
| 2026-04-15 16:36 | 50.05073 | 8.59001 | 370 ft | 9 kts | 335° |
| 2026-04-15 16:36 | 50.05108 | 8.58980 | 370 ft | 1 kts | 341° |
| 2026-04-15 16:36 | 50.05116 | 8.58976 | 370 ft | 2 kts | 340° |
| 2026-04-15 16:37 | 50.05118 | 8.58974 | 370 ft | 0 kts | 340° |